GLD1620 SBGL-SBPA
Flight info
| Callsign | GLD1620 |
|---|---|
| Flight time | N/A |
| Altitude | 36000 |
| Route | TIVR1B BITAK UN857 DOKRO VUKMO BUXE3A |
| Aircraft | A20N/M-SDE2E3FGHIRWXY/LB1 |
Departure
| Time | 2026-04-29 21:17 |
|---|---|
| Airport | Rio Galeão – Tom Jobim International Airport (SBGL) |
Arrival
| Time | N/A |
|---|---|
| Airport | Porto Alegre-Salgado Filho International Airport (SBPA) |
| Time | Latitude | Longitude | Altitude | Speed | Heading |
|---|---|---|---|---|---|
| 2026-04-29 21:06 | -22.81593 | -43.24690 | 26 ft | 0 kts | 26° |
| 2026-04-29 21:09 | -22.81605 | -43.24696 | 32 ft | 4 kts | 22° |
| 2026-04-29 21:09 | -22.81631 | -43.24704 | 28 ft | 4 kts | 358° |
| 2026-04-29 21:09 | -22.81653 | -43.24696 | 29 ft | 2 kts | 306° |
| 2026-04-29 21:10 | -22.81654 | -43.24695 | 29 ft | 0 kts | 305° |
| 2026-04-29 21:12 | -22.81651 | -43.24699 | 30 ft | 5 kts | 305° |
| 2026-04-29 21:12 | -22.81597 | -43.24785 | 31 ft | 22 kts | 304° |
| 2026-04-29 21:13 | -22.81504 | -43.24934 | 30 ft | 26 kts | 300° |
| 2026-04-29 21:13 | -22.81449 | -43.25048 | 27 ft | 21 kts | 271° |
| 2026-04-29 21:13 | -22.81499 | -43.25154 | 31 ft | 15 kts | 239° |
| 2026-04-29 21:13 | -22.81586 | -43.25239 | 30 ft | 19 kts | 219° |
| 2026-04-29 21:14 | -22.81697 | -43.25332 | 27 ft | 21 kts | 244° |
| 2026-04-29 21:14 | -22.81656 | -43.25477 | 29 ft | 22 kts | 303° |
| 2026-04-29 21:14 | -22.81561 | -43.25627 | 27 ft | 25 kts | 307° |
| 2026-04-29 21:14 | -22.81449 | -43.25791 | 28 ft | 28 kts | 306° |
| 2026-04-29 21:15 | -22.81331 | -43.25965 | 28 ft | 30 kts | 310° |
| 2026-04-29 21:15 | -22.81207 | -43.26145 | 26 ft | 28 kts | 308° |
| 2026-04-29 21:15 | -22.81128 | -43.26318 | 26 ft | 10 kts | 256° |
| 2026-04-29 21:15 | -22.81129 | -43.26321 | 26 ft | 0 kts | 253° |
| 2026-04-29 21:16 | -22.81191 | -43.26344 | 28 ft | 19 kts | 179° |
| 2026-04-29 21:16 | -22.81312 | -43.26261 | 29 ft | 23 kts | 123° |
| 2026-04-29 21:16 | -22.81544 | -43.25921 | 28 ft | 109 kts | 126° |
| 2026-04-29 21:16 | -22.82193 | -43.24903 | 210 ft | 189 kts | 126° |
| 2026-04-29 21:17 | -22.83062 | -43.23611 | 494 ft | 239 kts | 127° |
| 2026-04-29 21:17 | -22.83986 | -43.22127 | 457 ft | 236 kts | 112° |
| 2026-04-29 21:17 | -22.84086 | -43.20396 | 1725 ft | 236 kts | 76° |
| 2026-04-29 21:17 | -22.83306 | -43.18823 | 3265 ft | 212 kts | 45° |
| 2026-04-29 21:18 | -22.82138 | -43.17865 | 3858 ft | 220 kts | 33° |
| 2026-04-29 21:18 | -22.80873 | -43.16776 | 4631 ft | 244 kts | 45° |
| 2026-04-29 21:18 | -22.79812 | -43.15316 | 5852 ft | 249 kts | 57° |
| 2026-04-29 21:18 | -22.78974 | -43.13643 | 7069 ft | 255 kts | 65° |
| 2026-04-29 21:19 | -22.78279 | -43.11863 | 8253 ft | 260 kts | 69° |
| 2026-04-29 21:19 | -22.77630 | -43.09994 | 9466 ft | 266 kts | 70° |
| 2026-04-29 21:19 | -22.76995 | -43.08103 | 10574 ft | 271 kts | 69° |
| 2026-04-29 21:19 | -22.76342 | -43.06120 | 11667 ft | 278 kts | 73° |
| 2026-04-29 21:20 | -22.76214 | -43.04018 | 12722 ft | 288 kts | 98° |
| 2026-04-29 21:20 | -22.76948 | -43.01987 | 13675 ft | 302 kts | 123° |
| 2026-04-29 21:20 | -22.78458 | -43.00382 | 14548 ft | 310 kts | 146° |
| 2026-04-29 21:20 | -22.80336 | -42.99190 | 15462 ft | 316 kts | 153° |
| 2026-04-29 21:21 | -22.82308 | -42.98098 | 16355 ft | 322 kts | 156° |
| 2026-04-29 21:21 | -22.84473 | -42.97452 | 17221 ft | 323 kts | 180° |
| 2026-04-29 21:21 | -22.86679 | -42.97769 | 18105 ft | 319 kts | 205° |
| 2026-04-29 21:21 | -22.87975 | -42.98481 | 18640 ft | 314 kts | 220° |
| 2026-04-29 21:22 | -22.90315 | -43.00490 | 19242 ft | 336 kts | 226° |
| 2026-04-29 21:22 | -22.91517 | -43.01610 | 19381 ft | 352 kts | 226° |
| 2026-04-29 21:22 | -22.93450 | -43.03395 | 19578 ft | 376 kts | 225° |
| 2026-04-29 21:22 | -22.95520 | -43.05248 | 19865 ft | 394 kts | 224° |
| 2026-04-29 21:23 | -22.97675 | -43.07125 | 20502 ft | 399 kts | 223° |
| 2026-04-29 21:23 | -22.99856 | -43.09001 | 21295 ft | 402 kts | 223° |
| 2026-04-29 21:23 | -23.02762 | -43.11514 | 22272 ft | 406 kts | 224° |
| 2026-04-29 21:23 | -23.04256 | -43.12817 | 22779 ft | 408 kts | 224° |
| 2026-04-29 21:24 | -23.06458 | -43.14742 | 23479 ft | 412 kts | 224° |
| 2026-04-29 21:24 | -23.08686 | -43.16692 | 24089 ft | 415 kts | 224° |
| 2026-04-29 21:24 | -23.10946 | -43.18669 | 24678 ft | 419 kts | 224° |
| 2026-04-29 21:24 | -23.13196 | -43.20639 | 25274 ft | 421 kts | 224° |
| 2026-04-29 21:25 | -23.15485 | -43.22643 | 25854 ft | 425 kts | 224° |
| 2026-04-29 21:25 | -23.17793 | -43.24665 | 26429 ft | 428 kts | 225° |
| 2026-04-29 21:25 | -23.20116 | -43.26701 | 26991 ft | 431 kts | 225° |
| 2026-04-29 21:25 | -23.22458 | -43.28754 | 27539 ft | 434 kts | 225° |
| 2026-04-29 21:26 | -23.24817 | -43.30824 | 28101 ft | 436 kts | 225° |
| 2026-04-29 21:26 | -23.27183 | -43.32901 | 28635 ft | 439 kts | 225° |
| 2026-04-29 21:26 | -23.29564 | -43.34993 | 29160 ft | 442 kts | 225° |
| 2026-04-29 21:26 | -23.31965 | -43.37103 | 29686 ft | 444 kts | 225° |
| 2026-04-29 21:27 | -23.34379 | -43.39224 | 30183 ft | 447 kts | 224° |
| 2026-04-29 21:27 | -23.36818 | -43.41330 | 30630 ft | 450 kts | 224° |
| 2026-04-29 21:27 | -23.39297 | -43.43446 | 31086 ft | 453 kts | 224° |
| 2026-04-29 21:27 | -23.41750 | -43.45535 | 31602 ft | 454 kts | 224° |
| 2026-04-29 21:28 | -23.44223 | -43.47646 | 32195 ft | 452 kts | 224° |
| 2026-04-29 21:28 | -23.46702 | -43.49767 | 32794 ft | 451 kts | 224° |
| 2026-04-29 21:28 | -23.49160 | -43.51874 | 33377 ft | 450 kts | 224° |
| 2026-04-29 21:28 | -23.51622 | -43.53988 | 33937 ft | 449 kts | 224° |
| 2026-04-29 21:29 | -23.54068 | -43.56088 | 34464 ft | 447 kts | 224° |
| 2026-04-29 21:29 | -23.56502 | -43.58179 | 35048 ft | 443 kts | 224° |
| 2026-04-29 21:29 | -23.58911 | -43.60250 | 35597 ft | 441 kts | 224° |
| 2026-04-29 21:29 | -23.61313 | -43.62316 | 35717 ft | 437 kts | 225° |
| 2026-04-29 21:30 | -23.63616 | -43.64434 | 35809 ft | 432 kts | 229° |
| 2026-04-29 21:30 | -23.65736 | -43.66700 | 35917 ft | 431 kts | 231° |
| 2026-04-29 21:30 | -23.67865 | -43.68995 | 36015 ft | 430 kts | 231° |
| 2026-04-29 21:31 | -23.72129 | -43.73566 | 36035 ft | 430 kts | 231° |
| 2026-04-29 21:31 | -23.76389 | -43.78137 | 36037 ft | 430 kts | 231° |
| 2026-04-29 21:32 | -23.80660 | -43.82728 | 36034 ft | 430 kts | 231° |
| 2026-04-29 21:32 | -23.84924 | -43.87318 | 36035 ft | 430 kts | 231° |
| 2026-04-29 21:33 | -23.89181 | -43.91903 | 36032 ft | 430 kts | 231° |
| 2026-04-29 21:33 | -23.93443 | -43.96500 | 36036 ft | 430 kts | 231° |
| 2026-04-29 21:34 | -23.97694 | -44.01089 | 36040 ft | 430 kts | 231° |
| 2026-04-29 21:34 | -24.01916 | -44.05649 | 36042 ft | 429 kts | 231° |
| 2026-04-29 21:35 | -24.06159 | -44.10239 | 36046 ft | 429 kts | 231° |
| 2026-04-29 21:35 | -24.10419 | -44.14851 | 36054 ft | 428 kts | 232° |
| 2026-04-29 21:36 | -24.14597 | -44.19378 | 36055 ft | 427 kts | 232° |
| 2026-04-29 21:36 | -24.18854 | -44.23995 | 36054 ft | 426 kts | 232° |
| 2026-04-29 21:37 | -24.23026 | -44.28526 | 36048 ft | 425 kts | 232° |
| 2026-04-29 21:37 | -24.27224 | -44.33088 | 36050 ft | 423 kts | 232° |
| 2026-04-29 21:38 | -24.31394 | -44.37626 | 36033 ft | 422 kts | 232° |
| 2026-04-29 21:38 | -24.35555 | -44.42157 | 36034 ft | 421 kts | 232° |
| 2026-04-29 21:39 | -24.39712 | -44.46689 | 36031 ft | 420 kts | 232° |
| 2026-04-29 21:39 | -24.43851 | -44.51205 | 36031 ft | 420 kts | 232° |
| 2026-04-29 21:40 | -24.47961 | -44.55695 | 36029 ft | 419 kts | 232° |
| 2026-04-29 21:40 | -24.52075 | -44.60226 | 36028 ft | 418 kts | 233° |
| 2026-04-29 21:41 | -24.56142 | -44.64784 | 36033 ft | 418 kts | 233° |
| 2026-04-29 21:41 | -24.60217 | -44.69348 | 36033 ft | 418 kts | 233° |
| 2026-04-29 21:42 | -24.64293 | -44.73909 | 36042 ft | 418 kts | 233° |
| 2026-04-29 21:42 | -24.68370 | -44.78475 | 36045 ft | 418 kts | 233° |
| 2026-04-29 21:43 | -24.72416 | -44.83011 | 36048 ft | 418 kts | 233° |
| 2026-04-29 21:43 | -24.76486 | -44.87578 | 36049 ft | 418 kts | 233° |
| 2026-04-29 21:44 | -24.80554 | -44.92148 | 36049 ft | 418 kts | 233° |
| 2026-04-29 21:44 | -24.84627 | -44.96727 | 36049 ft | 418 kts | 233° |
| 2026-04-29 21:45 | -24.88666 | -45.01273 | 36051 ft | 418 kts | 233° |
| 2026-04-29 21:45 | -24.92726 | -45.05847 | 36050 ft | 417 kts | 233° |
| 2026-04-29 21:46 | -24.96785 | -45.10425 | 36049 ft | 417 kts | 233° |
| 2026-04-29 21:46 | -25.00832 | -45.14994 | 36049 ft | 417 kts | 233° |
| 2026-04-29 21:47 | -25.04851 | -45.19535 | 36048 ft | 416 kts | 234° |
| 2026-04-29 21:47 | -25.08894 | -45.24108 | 36043 ft | 416 kts | 234° |
| 2026-04-29 21:48 | -25.12927 | -45.28676 | 36045 ft | 416 kts | 234° |
| 2026-04-29 21:48 | -25.16961 | -45.33248 | 36042 ft | 415 kts | 234° |
| 2026-04-29 21:49 | -25.20990 | -45.37820 | 36038 ft | 415 kts | 234° |
| 2026-04-29 21:49 | -25.25014 | -45.42390 | 36038 ft | 415 kts | 234° |
| 2026-04-29 21:50 | -25.29006 | -45.46929 | 36036 ft | 415 kts | 234° |
| 2026-04-29 21:50 | -25.33022 | -45.51500 | 36036 ft | 414 kts | 234° |
| 2026-04-29 21:51 | -25.37032 | -45.56068 | 36038 ft | 414 kts | 234° |
| 2026-04-29 21:51 | -25.43049 | -45.62932 | 36033 ft | 414 kts | 234° |
| 2026-04-29 21:52 | -25.47045 | -45.67496 | 36033 ft | 414 kts | 234° |
| 2026-04-29 21:52 | -25.51054 | -45.72080 | 36033 ft | 414 kts | 234° |
| 2026-04-29 21:53 | -25.55021 | -45.76619 | 36032 ft | 414 kts | 234° |
| 2026-04-29 21:53 | -25.59032 | -45.81214 | 36029 ft | 414 kts | 235° |
| 2026-04-29 21:54 | -25.63029 | -45.85797 | 36030 ft | 414 kts | 235° |
| 2026-04-29 21:54 | -25.67033 | -45.90393 | 36031 ft | 414 kts | 235° |
| 2026-04-29 21:55 | -25.70975 | -45.94927 | 36029 ft | 414 kts | 235° |
| 2026-04-29 21:55 | -25.74979 | -45.99536 | 36028 ft | 414 kts | 235° |
| 2026-04-29 21:56 | -25.78964 | -46.04126 | 36025 ft | 414 kts | 235° |
| 2026-04-29 21:56 | -25.82962 | -46.08737 | 36023 ft | 414 kts | 235° |
| 2026-04-29 21:57 | -25.86952 | -46.13343 | 36025 ft | 414 kts | 235° |
| 2026-04-29 21:57 | -25.90920 | -46.17930 | 36028 ft | 414 kts | 235° |
| 2026-04-29 21:58 | -25.94915 | -46.22551 | 36032 ft | 414 kts | 235° |
| 2026-04-29 21:58 | -25.98907 | -46.27173 | 36033 ft | 414 kts | 235° |
| 2026-04-29 21:59 | -26.02888 | -46.31789 | 36030 ft | 414 kts | 235° |
| 2026-04-29 21:59 | -26.06876 | -46.36416 | 36036 ft | 414 kts | 235° |
| 2026-04-29 22:00 | -26.10862 | -46.41046 | 36032 ft | 414 kts | 236° |
| 2026-04-29 22:00 | -26.14825 | -46.45654 | 36033 ft | 414 kts | 236° |
| 2026-04-29 22:01 | -26.18803 | -46.50284 | 36037 ft | 414 kts | 236° |
| 2026-04-29 22:01 | -26.22785 | -46.54925 | 36038 ft | 414 kts | 236° |